메인 페이지
METAR-TAF:

METAR-TAF

공항 :

마타베리 국제공항

이스터 섬, 칠레

위도: 27-09S, 경도: 109-25W, 고도: 51m

현재 날씨관측

예보는 15분 전, 20:00시(UTC)에 발표되었습니다.
북서18kt
온도 22°C
습도 78%
기압 1019 hPa
시정 10km 이상
고도 2000ft 상공 구름 보통

METAR: SCIP 182000Z 31018KT 9999 SCT020 22/18 Q1019 NOSIG

시각: 15:15 (20:15 UTC)

예보

예보는 3 시간 53분 전, 16:22시(UTC)에 발표되었습니다.
예보 대상 시간: 18일 18시부터 19일 18시까지 (UTC)
북서18kt
시정 10km 이상
고도 2000ft 상공 구름 보통
일시적
18일 22시부터 19일 02시까지 (UTC)
북북서13kt
고도 2000ft 상공 구름 보통
고도 4000ft 상공 구름 보통
전환 중
19일 06시부터 19일 08시까지 (UTC)
북서8kt
일시적
19일 13시부터 19일 18시까지 (UTC)
시정: 8000m
고도 2000ft 상공 구름 많음
약한소나기

TAF: SCIP 181622Z 1818/1918 31018KT 9999 SCT020 TX23/1820Z TN16/1910Z TEMPO 1822/1902 34013KT SCT020 SCT040 BECMG 1906/1908 31008KT TEMPO 1913/1918 8000 -SHRA BKN020

4,000개 이상의 공항 관측 자료 및 예보 (METAR 및 TAF 보고).

지도상에서 검색 가능한 기상관측소가 노란 점과 빨간 점으로 표시되어 있습니다.

기상관측소 명을 보려면 표시 위로 마우스를 이동하세요.

날씨 관측과 예보를 보려면 클릭하세요.

지도 변경 : 확대하려면 엑스 표시가 있는 녹색 버튼, 축소하려면 빼기 표시가 있는 녹색 버튼, 다음 페이지의 지도를 보려면 녹색 화살표를 클릭하세요.


METAR-TAF: